sensor_id;sensor_type;location;lat;lon;timestamp;P1;durP1;ratioP1;P2;durP2;ratioP2
55710;SDS011;41612;51.994;5.880;2022-10-15T00:00:36;17.13;;;13.38;;
55710;SDS011;41612;51.994;5.880;2022-10-15T00:03:06;17.90;;;12.32;;
55710;SDS011;41612;51.994;5.880;2022-10-15T00:05:40;22.50;;;16.92;;
55710;SDS011;41612;51.994;5.880;2022-10-15T00:08:22;29.45;;;21.92;;
55710;SDS011;41612;51.994;5.880;2022-10-15T00:11:00;25.00;;;20.30;;
55710;SDS011;41612;51.994;5.880;2022-10-15T00:14:02;18.00;;;13.10;;
55710;SDS011;41612;51.994;5.880;2022-10-15T00:16:39;14.02;;;10.85;;
55710;SDS011;41612;51.994;5.880;2022-10-15T00:20:01;12.40;;;10.05;;
55710;SDS011;41612;51.994;5.880;2022-10-15T00:22:55;12.85;;;9.18;;
55710;SDS011;41612;51.994;5.880;2022-10-15T00:25:39;12.07;;;9.13;;
55710;SDS011;41612;51.994;5.880;2022-10-15T00:28:16;11.85;;;8.65;;
55710;SDS011;41612;51.994;5.880;2022-10-15T00:30:58;11.27;;;8.75;;
55710;SDS011;41612;51.994;5.880;2022-10-15T00:33:47;12.40;;;10.45;;
55710;SDS011;41612;51.994;5.880;2022-10-15T00:36:33;12.23;;;9.38;;
55710;SDS011;41612;51.994;5.880;2022-10-15T00:39:13;11.30;;;9.73;;
55710;SDS011;41612;51.994;5.880;2022-10-15T00:41:51;11.15;;;7.93;;
55710;SDS011;41612;51.994;5.880;2022-10-15T00:55:29;13.73;;;10.43;;
55710;SDS011;41612;51.994;5.880;2022-10-15T00:57:58;26.17;;;18.95;;
55710;SDS011;41612;51.994;5.880;2022-10-15T01:00:27;23.98;;;16.42;;
55710;SDS011;41612;51.994;5.880;2022-10-15T01:02:55;18.27;;;13.65;;
55710;SDS011;41612;51.994;5.880;2022-10-15T01:05:21;20.17;;;15.73;;
55710;SDS011;41612;51.994;5.880;2022-10-15T01:07:50;21.63;;;16.23;;
55710;SDS011;41612;51.994;5.880;2022-10-15T01:10:16;17.67;;;13.40;;
55710;SDS011;41612;51.994;5.880;2022-10-15T01:13:06;20.20;;;13.63;;
55710;SDS011;41612;51.994;5.880;2022-10-15T01:15:52;24.27;;;17.42;;
55710;SDS011;41612;51.994;5.880;2022-10-15T01:18:39;17.92;;;13.38;;
55710;SDS011;41612;51.994;5.880;2022-10-15T01:32:21;22.65;;;16.80;;
55710;SDS011;41612;51.994;5.880;2022-10-15T01:34:57;21.42;;;15.70;;
55710;SDS011;41612;51.994;5.880;2022-10-15T01:37:36;29.63;;;21.35;;
55710;SDS011;41612;51.994;5.880;2022-10-15T01:40:33;36.17;;;25.20;;
55710;SDS011;41612;51.994;5.880;2022-10-15T01:43:15;18.45;;;14.15;;
55710;SDS011;41612;51.994;5.880;2022-10-15T01:46:10;18.90;;;14.73;;
55710;SDS011;41612;51.994;5.880;2022-10-15T01:51:34;20.75;;;14.38;;
55710;SDS011;41612;51.994;5.880;2022-10-15T01:54:04;32.78;;;24.88;;
55710;SDS011;41612;51.994;5.880;2022-10-15T01:56:39;22.48;;;16.48;;
55710;SDS011;41612;51.994;5.880;2022-10-15T01:59:11;25.05;;;18.90;;
55710;SDS011;41612;51.994;5.880;2022-10-15T02:01:43;24.70;;;17.60;;
55710;SDS011;41612;51.994;5.880;2022-10-15T02:04:27;15.43;;;11.88;;
55710;SDS011;41612;51.994;5.880;2022-10-15T02:12:16;24.05;;;17.13;;
55710;SDS011;41612;51.994;5.880;2022-10-15T02:15:05;40.55;;;27.50;;
55710;SDS011;41612;51.994;5.880;2022-10-15T02:23:53;31.02;;;22.00;;
55710;SDS011;41612;51.994;5.880;2022-10-15T02:26:42;37.35;;;24.13;;
55710;SDS011;41612;51.994;5.880;2022-10-15T02:29:26;39.22;;;27.10;;
55710;SDS011;41612;51.994;5.880;2022-10-15T02:32:01;42.58;;;28.70;;
55710;SDS011;41612;51.994;5.880;2022-10-15T02:34:30;41.60;;;30.63;;
55710;SDS011;41612;51.994;5.880;2022-10-15T02:37:06;46.95;;;29.73;;
55710;SDS011;41612;51.994;5.880;2022-10-15T02:39:35;42.35;;;28.20;;
55710;SDS011;41612;51.994;5.880;2022-10-15T02:42:01;36.08;;;23.15;;
55710;SDS011;41612;51.994;5.880;2022-10-15T02:44:30;28.90;;;19.13;;
55710;SDS011;41612;51.994;5.880;2022-10-15T02:46:56;30.30;;;20.67;;
55710;SDS011;41612;51.994;5.880;2022-10-15T02:49:24;41.88;;;28.10;;
55710;SDS011;41612;51.994;5.880;2022-10-15T02:51:52;38.03;;;23.48;;
55710;SDS011;41612;51.994;5.880;2022-10-15T02:54:18;30.70;;;21.67;;
55710;SDS011;41612;51.994;5.880;2022-10-15T02:56:45;29.30;;;19.45;;
55710;SDS011;41612;51.994;5.880;2022-10-15T02:59:14;37.30;;;25.25;;
55710;SDS011;41612;51.994;5.880;2022-10-15T03:01:42;29.88;;;20.73;;
55710;SDS011;41612;51.994;5.880;2022-10-15T03:04:12;28.58;;;19.95;;
55710;SDS011;41612;51.994;5.880;2022-10-15T03:06:38;31.15;;;21.60;;
55710;SDS011;41612;51.994;5.880;2022-10-15T03:09:04;25.77;;;17.48;;
55710;SDS011;41612;51.994;5.880;2022-10-15T03:11:38;19.73;;;14.23;;
55710;SDS011;41612;51.994;5.880;2022-10-15T03:14:10;22.17;;;15.68;;
55710;SDS011;41612;51.994;5.880;2022-10-15T03:16:39;28.40;;;18.52;;
55710;SDS011;41612;51.994;5.880;2022-10-15T03:19:09;24.92;;;18.70;;
55710;SDS011;41612;51.994;5.880;2022-10-15T03:21:38;23.58;;;16.67;;
55710;SDS011;41612;51.994;5.880;2022-10-15T03:24:09;23.83;;;16.27;;
55710;SDS011;41612;51.994;5.880;2022-10-15T03:26:37;22.42;;;15.13;;
55710;SDS011;41612;51.994;5.880;2022-10-15T03:29:04;27.30;;;19.63;;
55710;SDS011;41612;51.994;5.880;2022-10-15T03:31:34;25.55;;;19.27;;
55710;SDS011;41612;51.994;5.880;2022-10-15T03:34:02;32.05;;;22.02;;
55710;SDS011;41612;51.994;5.880;2022-10-15T03:36:29;31.17;;;22.23;;
55710;SDS011;41612;51.994;5.880;2022-10-15T03:38:58;35.72;;;23.73;;
55710;SDS011;41612;51.994;5.880;2022-10-15T03:41:24;37.50;;;26.10;;
55710;SDS011;41612;51.994;5.880;2022-10-15T03:43:50;41.00;;;28.02;;
55710;SDS011;41612;51.994;5.880;2022-10-15T03:46:16;43.53;;;29.23;;
55710;SDS011;41612;51.994;5.880;2022-10-15T03:48:47;49.00;;;30.27;;
55710;SDS011;41612;51.994;5.880;2022-10-15T03:51:18;47.13;;;30.02;;
55710;SDS011;41612;51.994;5.880;2022-10-15T03:53:46;37.10;;;26.02;;
55710;SDS011;41612;51.994;5.880;2022-10-15T03:56:12;37.50;;;26.05;;
55710;SDS011;41612;51.994;5.880;2022-10-15T03:58:39;48.45;;;32.35;;
55710;SDS011;41612;51.994;5.880;2022-10-15T04:01:14;39.00;;;25.95;;
55710;SDS011;41612;51.994;5.880;2022-10-15T04:03:42;41.22;;;27.88;;
55710;SDS011;41612;51.994;5.880;2022-10-15T04:06:20;33.67;;;24.55;;
55710;SDS011;41612;51.994;5.880;2022-10-15T04:08:46;46.72;;;31.05;;
55710;SDS011;41612;51.994;5.880;2022-10-15T04:11:22;38.03;;;27.13;;
55710;SDS011;41612;51.994;5.880;2022-10-15T04:18:49;27.80;;;18.75;;
55710;SDS011;41612;51.994;5.880;2022-10-15T04:21:16;35.40;;;25.17;;
55710;SDS011;41612;51.994;5.880;2022-10-15T04:23:48;40.85;;;28.95;;
55710;SDS011;41612;51.994;5.880;2022-10-15T04:26:28;34.60;;;22.88;;
55710;SDS011;41612;51.994;5.880;2022-10-15T04:28:58;41.80;;;27.30;;
55710;SDS011;41612;51.994;5.880;2022-10-15T04:31:24;47.45;;;31.38;;
55710;SDS011;41612;51.994;5.880;2022-10-15T04:33:51;30.77;;;22.85;;
55710;SDS011;41612;51.994;5.880;2022-10-15T04:36:17;35.13;;;23.67;;
55710;SDS011;41612;51.994;5.880;2022-10-15T04:38:56;35.03;;;22.23;;
55710;SDS011;41612;51.994;5.880;2022-10-15T04:41:33;23.00;;;16.55;;
55710;SDS011;41612;51.994;5.880;2022-10-15T04:44:02;41.03;;;27.65;;
55710;SDS011;41612;51.994;5.880;2022-10-15T04:46:30;34.13;;;23.60;;
55710;SDS011;41612;51.994;5.880;2022-10-15T04:49:01;34.08;;;23.27;;
55710;SDS011;41612;51.994;5.880;2022-10-15T04:51:27;34.47;;;23.70;;
55710;SDS011;41612;51.994;5.880;2022-10-15T04:54:10;20.33;;;15.10;;
55710;SDS011;41612;51.994;5.880;2022-10-15T04:59:12;23.83;;;17.88;;
55710;SDS011;41612;51.994;5.880;2022-10-15T05:01:57;29.98;;;22.15;;
55710;SDS011;41612;51.994;5.880;2022-10-15T05:04:26;24.55;;;17.75;;
55710;SDS011;41612;51.994;5.880;2022-10-15T05:06:52;20.17;;;15.10;;
55710;SDS011;41612;51.994;5.880;2022-10-15T05:09:19;30.33;;;22.90;;
55710;SDS011;41612;51.994;5.880;2022-10-15T05:12:01;27.58;;;20.77;;
55710;SDS011;41612;51.994;5.880;2022-10-15T05:14:52;28.90;;;20.48;;
55710;SDS011;41612;51.994;5.880;2022-10-15T05:17:28;33.38;;;23.42;;
55710;SDS011;41612;51.994;5.880;2022-10-15T05:19:58;26.00;;;20.30;;
55710;SDS011;41612;51.994;5.880;2022-10-15T05:22:39;34.25;;;25.30;;
55710;SDS011;41612;51.994;5.880;2022-10-15T05:27:45;29.92;;;22.90;;
55710;SDS011;41612;51.994;5.880;2022-10-15T05:30:11;45.13;;;32.67;;
55710;SDS011;41612;51.994;5.880;2022-10-15T05:32:44;38.70;;;28.75;;
55710;SDS011;41612;51.994;5.880;2022-10-15T05:35:14;23.73;;;17.33;;
55710;SDS011;41612;51.994;5.880;2022-10-15T05:37:59;36.80;;;25.70;;
55710;SDS011;41612;51.994;5.880;2022-10-15T05:40:49;47.38;;;33.67;;
55710;SDS011;41612;51.994;5.880;2022-10-15T05:43:22;22.20;;;17.17;;
55710;SDS011;41612;51.994;5.880;2022-10-15T05:45:55;35.30;;;27.77;;
55710;SDS011;41612;51.994;5.880;2022-10-15T05:48:21;42.72;;;31.35;;
55710;SDS011;41612;51.994;5.880;2022-10-15T05:50:51;31.90;;;24.90;;
55710;SDS011;41612;51.994;5.880;2022-10-15T05:53:24;36.40;;;26.08;;
55710;SDS011;41612;51.994;5.880;2022-10-15T05:55:55;43.13;;;32.28;;
55710;SDS011;41612;51.994;5.880;2022-10-15T05:58:28;44.58;;;33.47;;
55710;SDS011;41612;51.994;5.880;2022-10-15T06:03:24;32.88;;;24.42;;
55710;SDS011;41612;51.994;5.880;2022-10-15T06:05:51;42.88;;;31.48;;
55710;SDS011;41612;51.994;5.880;2022-10-15T06:08:28;46.03;;;33.65;;
55710;SDS011;41612;51.994;5.880;2022-10-15T06:10:55;59.17;;;38.45;;
55710;SDS011;41612;51.994;5.880;2022-10-15T06:13:26;52.50;;;37.03;;
55710;SDS011;41612;51.994;5.880;2022-10-15T06:15:57;51.35;;;33.90;;
55710;SDS011;41612;51.994;5.880;2022-10-15T06:18:26;46.72;;;34.17;;
55710;SDS011;41612;51.994;5.880;2022-10-15T06:20:54;46.67;;;32.83;;
55710;SDS011;41612;51.994;5.880;2022-10-15T06:26:46;51.20;;;34.08;;
55710;SDS011;41612;51.994;5.880;2022-10-15T06:29:14;41.13;;;27.02;;
55710;SDS011;41612;51.994;5.880;2022-10-15T06:31:57;34.33;;;24.95;;
55710;SDS011;41612;51.994;5.880;2022-10-15T06:34:33;22.15;;;17.63;;
55710;SDS011;41612;51.994;5.880;2022-10-15T06:36:59;43.13;;;30.10;;
55710;SDS011;41612;51.994;5.880;2022-10-15T06:39:25;41.85;;;30.25;;
55710;SDS011;41612;51.994;5.880;2022-10-15T06:42:04;32.25;;;23.33;;
55710;SDS011;41612;51.994;5.880;2022-10-15T06:44:53;30.98;;;22.83;;
55710;SDS011;41612;51.994;5.880;2022-10-15T06:50:22;47.67;;;32.72;;
55710;SDS011;41612;51.994;5.880;2022-10-15T06:53:25;55.53;;;31.33;;
55710;SDS011;41612;51.994;5.880;2022-10-15T06:56:03;48.72;;;31.98;;
55710;SDS011;41612;51.994;5.880;2022-10-15T06:59:01;47.83;;;30.65;;
55710;SDS011;41612;51.994;5.880;2022-10-15T07:01:29;49.38;;;30.70;;
55710;SDS011;41612;51.994;5.880;2022-10-15T07:03:57;30.23;;;21.80;;
55710;SDS011;41612;51.994;5.880;2022-10-15T07:06:35;44.60;;;28.40;;
55710;SDS011;41612;51.994;5.880;2022-10-15T07:09:08;45.92;;;29.17;;
55710;SDS011;41612;51.994;5.880;2022-10-15T07:11:34;47.85;;;30.85;;
55710;SDS011;41612;51.994;5.880;2022-10-15T07:14:03;45.90;;;31.00;;
55710;SDS011;41612;51.994;5.880;2022-10-15T07:16:50;44.58;;;31.00;;
55710;SDS011;41612;51.994;5.880;2022-10-15T07:19:21;43.83;;;28.08;;
55710;SDS011;41612;51.994;5.880;2022-10-15T07:22:12;31.80;;;21.63;;
55710;SDS011;41612;51.994;5.880;2022-10-15T07:24:38;45.20;;;28.95;;
55710;SDS011;41612;51.994;5.880;2022-10-15T07:27:04;35.92;;;23.08;;
55710;SDS011;41612;51.994;5.880;2022-10-15T07:29:36;42.58;;;28.33;;
55710;SDS011;41612;51.994;5.880;2022-10-15T07:32:18;35.92;;;23.92;;
55710;SDS011;41612;51.994;5.880;2022-10-15T07:34:51;43.10;;;28.35;;
55710;SDS011;41612;51.994;5.880;2022-10-15T07:37:27;36.38;;;22.92;;
55710;SDS011;41612;51.994;5.880;2022-10-15T07:39:55;36.70;;;23.15;;
55710;SDS011;41612;51.994;5.880;2022-10-15T07:42:40;34.10;;;21.52;;
55710;SDS011;41612;51.994;5.880;2022-10-15T07:45:42;39.42;;;25.65;;
55710;SDS011;41612;51.994;5.880;2022-10-15T07:48:23;35.40;;;24.35;;
55710;SDS011;41612;51.994;5.880;2022-10-15T07:50:58;26.85;;;20.00;;
55710;SDS011;41612;51.994;5.880;2022-10-15T07:53:28;41.30;;;27.83;;
55710;SDS011;41612;51.994;5.880;2022-10-15T11:57:34;11.57;;;8.43;;
55710;SDS011;41612;51.994;5.880;2022-10-15T12:00:28;14.35;;;8.18;;
55710;SDS011;41612;51.994;5.880;2022-10-15T12:03:18;14.05;;;8.00;;
55710;SDS011;41612;51.994;5.880;2022-10-15T12:05:49;11.68;;;8.95;;
55710;SDS011;41612;51.994;5.880;2022-10-15T12:08:51;11.27;;;8.75;;
55710;SDS011;41612;51.994;5.880;2022-10-15T12:11:32;11.43;;;6.85;;
55710;SDS011;41612;51.994;5.880;2022-10-15T12:14:13;10.25;;;8.45;;
55710;SDS011;41612;51.994;5.880;2022-10-15T12:17:07;10.88;;;7.60;;
55710;SDS011;41612;51.994;5.880;2022-10-15T12:20:00;10.90;;;8.60;;
55710;SDS011;41612;51.994;5.880;2022-10-15T12:28:19;13.27;;;8.25;;
